Weather

BOSCOMBE DOWN (EGDM)

METAR

EGDM 202250Z AUTO 27014KT 9999 -RA BKN050/// SCT090/// 05/04 Q0976

TAF not available